createdAt,value
2018-12-22T00:01:07.650Z,66.76
2018-12-22T00:03:35.145Z,67.77
2018-12-22T00:06:02.607Z,68.83
2018-12-22T00:08:30.101Z,67.88
2018-12-22T00:10:57.550Z,67.73
2018-12-22T00:13:25.027Z,66.77
2018-12-22T00:15:52.492Z,67.36
2018-12-22T00:18:19.985Z,67.82
2018-12-22T00:20:47.461Z,66.65
2018-12-22T00:23:14.920Z,66.69
2018-12-22T00:25:42.418Z,66.96
2018-12-22T00:28:09.877Z,67.51
2018-12-22T00:30:37.352Z,67.42
2018-12-22T00:33:04.808Z,67.94
2018-12-22T00:35:32.289Z,67.46
2018-12-22T00:37:59.785Z,67.41
2018-12-22T00:40:27.263Z,68.98
2018-12-22T00:42:54.748Z,68.40
2018-12-22T00:45:22.502Z,69.19
2018-12-22T00:47:50.004Z,67.82
2018-12-22T00:50:17.491Z,67.84
2018-12-22T00:52:44.984Z,67.61
2018-12-22T00:55:12.454Z,67.78
2018-12-22T00:57:40.041Z,68.90
2018-12-22T01:00:08.307Z,68.84
2018-12-22T01:02:35.804Z,69.40
2018-12-22T01:05:03.447Z,69.74
2018-12-22T01:07:30.941Z,70.88
2018-12-22T01:09:58.494Z,71.02
2018-12-22T01:12:25.946Z,69.58
2018-12-22T01:14:53.425Z,70.92
2018-12-22T01:17:20.916Z,71.06
2018-12-22T01:19:48.381Z,70.83
2018-12-22T01:22:15.869Z,71.42
2018-12-22T01:24:43.372Z,74.67
2018-12-22T01:27:10.827Z,71.05
2018-12-22T01:29:38.311Z,70.12
2018-12-22T01:32:05.755Z,70.64
2018-12-22T01:34:33.255Z,70.96
2018-12-22T01:37:01.057Z,71.19
2018-12-22T01:39:28.550Z,71.54
2018-12-22T01:41:55.999Z,72.34
2018-12-22T01:44:23.471Z,72.34
2018-12-22T01:46:50.929Z,73.11
2018-12-22T01:49:18.412Z,72.78
2018-12-22T01:51:45.906Z,73.55
2018-12-22T01:54:13.401Z,74.11
2018-12-22T01:56:40.867Z,73.54
2018-12-22T01:59:08.345Z,74.16
2018-12-22T02:01:35.846Z,75.66
2018-12-22T02:04:03.325Z,73.51
2018-12-22T02:06:30.826Z,73.79
2018-12-22T02:08:58.387Z,72.53
2018-12-22T02:11:25.864Z,73.65
2018-12-22T02:13:53.316Z,73.30
2018-12-22T02:16:20.778Z,74.29
2018-12-22T02:18:48.245Z,74.35
2018-12-22T02:21:15.722Z,74.34
2018-12-22T02:23:43.156Z,74.01
2018-12-22T02:26:10.667Z,76.06
2018-12-22T02:28:38.156Z,75.30
2018-12-22T02:31:05.604Z,74.76
2018-12-22T02:33:33.088Z,73.75
2018-12-22T02:36:00.566Z,73.66
2018-12-22T02:38:28.015Z,75.59
2018-12-22T02:40:55.525Z,76.43
2018-12-22T02:43:23.007Z,75.97
2018-12-22T02:45:50.445Z,75.99
2018-12-22T02:48:17.944Z,76.67
2018-12-22T02:50:45.402Z,77.89
2018-12-22T02:53:12.904Z,77.34
2018-12-22T02:55:40.349Z,77.19
2018-12-22T02:58:07.832Z,77.62
2018-12-22T03:00:35.447Z,77.34
2018-12-22T03:03:02.922Z,77.69
2018-12-22T03:05:30.418Z,77.88
2018-12-22T03:07:59.370Z,78.02
2018-12-22T03:10:27.216Z,77.94
2018-12-22T03:12:54.677Z,77.27
2018-12-22T03:15:22.170Z,77.20
2018-12-22T03:17:49.622Z,77.04
2018-12-22T03:20:17.840Z,77.34
2018-12-22T03:22:45.278Z,77.31
2018-12-22T03:25:12.745Z,77.53
2018-12-22T03:27:40.282Z,77.38
2018-12-22T03:30:07.845Z,77.32
2018-12-22T03:32:35.329Z,76.73
2018-12-22T03:35:02.796Z,76.93
2018-12-22T03:37:30.712Z,77.34
2018-12-22T03:39:58.192Z,77.31
2018-12-22T03:42:25.667Z,76.90
2018-12-22T03:44:53.110Z,77.58
2018-12-22T03:47:20.601Z,77.56
2018-12-22T03:49:48.066Z,78.45
2018-12-22T03:52:15.541Z,77.70
2018-12-22T03:54:43.256Z,78.00
2018-12-22T03:57:10.722Z,77.73
2018-12-22T03:59:38.197Z,78.16
2018-12-22T04:02:05.692Z,77.86
2018-12-22T04:04:33.125Z,76.68
2018-12-22T04:07:00.613Z,77.43
2018-12-22T04:09:28.076Z,77.04
2018-12-22T04:11:55.686Z,77.56
2018-12-22T04:14:23.160Z,76.74
2018-12-22T04:16:50.623Z,76.67
2018-12-22T04:19:18.114Z,76.77
2018-12-22T04:21:45.563Z,76.67
2018-12-22T04:24:13.090Z,76.15
2018-12-22T04:26:40.585Z,76.81
2018-12-22T04:29:08.071Z,76.61
2018-12-22T04:31:35.521Z,75.99
2018-12-22T04:34:02.993Z,75.71
2018-12-22T04:36:30.470Z,75.23
2018-12-22T04:38:57.955Z,75.06
2018-12-22T04:41:26.053Z,75.01
2018-12-22T04:43:53.850Z,75.19
2018-12-22T04:46:21.528Z,75.55
2018-12-22T04:48:49.259Z,75.20
2018-12-22T04:51:16.755Z,75.83
2018-12-22T04:53:44.247Z,75.93
2018-12-22T04:56:11.703Z,75.23
2018-12-22T04:58:39.225Z,76.04
2018-12-22T05:01:06.684Z,75.58
2018-12-22T05:03:34.175Z,76.65
2018-12-22T05:06:01.609Z,76.17
2018-12-22T05:08:29.091Z,76.07
2018-12-22T05:10:56.579Z,76.46
2018-12-22T05:13:24.029Z,76.98
2018-12-22T05:15:51.504Z,77.32
2018-12-22T05:18:18.994Z,76.02
2018-12-22T05:20:46.425Z,76.94
2018-12-22T05:23:13.919Z,76.48
2018-12-22T05:25:41.359Z,77.25
2018-12-22T05:28:08.827Z,77.22
2018-12-22T05:30:36.319Z,76.90
2018-12-22T05:33:03.883Z,76.10
2018-12-22T05:35:31.334Z,76.66
2018-12-22T05:37:58.804Z,76.75
2018-12-22T05:40:26.259Z,76.04
2018-12-22T05:42:53.784Z,76.38
2018-12-22T05:45:21.268Z,75.90
2018-12-22T05:47:48.938Z,77.02
2018-12-22T05:50:16.408Z,76.68
2018-12-22T05:52:43.849Z,76.31
2018-12-22T05:55:11.358Z,76.64
2018-12-22T05:57:38.882Z,76.64
2018-12-22T06:00:08.892Z,76.23
2018-12-22T06:02:36.361Z,76.05
2018-12-22T06:05:06.646Z,76.20
2018-12-22T06:07:34.099Z,75.80
2018-12-22T06:10:01.597Z,76.13
2018-12-22T06:12:29.067Z,74.98
2018-12-22T06:14:56.526Z,75.20
2018-12-22T06:17:24.004Z,75.61
2018-12-22T06:19:51.462Z,75.28
2018-12-22T06:22:18.943Z,75.98
2018-12-22T06:24:46.398Z,75.73
2018-12-22T06:27:13.993Z,75.20
2018-12-22T06:29:41.467Z,75.25
2018-12-22T06:32:08.959Z,75.25
2018-12-22T06:34:36.397Z,75.01
2018-12-22T06:37:03.867Z,75.66
2018-12-22T06:39:31.357Z,75.22
2018-12-22T06:41:58.865Z,75.09
2018-12-22T06:44:26.326Z,73.87
2018-12-22T06:46:53.765Z,74.05
2018-12-22T06:49:21.258Z,73.75
2018-12-22T06:51:49.299Z,74.16
2018-12-22T06:54:16.768Z,74.32
2018-12-22T06:56:45.143Z,74.06
2018-12-22T06:59:12.594Z,74.68
2018-12-22T07:01:40.089Z,74.72
2018-12-22T07:04:07.562Z,74.11
2018-12-22T07:06:35.059Z,74.47
2018-12-22T07:09:02.529Z,73.99
2018-12-22T07:11:29.976Z,74.57
2018-12-22T07:13:57.477Z,73.45
2018-12-22T07:16:24.942Z,73.09
2018-12-22T07:18:52.373Z,74.44
2018-12-22T07:21:19.878Z,73.33
2018-12-22T07:23:47.307Z,73.60
2018-12-22T07:26:14.795Z,73.63
2018-12-22T07:28:42.294Z,74.87
2018-12-22T07:31:09.778Z,74.76
2018-12-22T07:33:37.294Z,73.82
2018-12-22T07:36:04.723Z,73.92
2018-12-22T07:38:32.239Z,73.33
2018-12-22T07:40:59.714Z,73.52
2018-12-22T07:43:27.983Z,73.89
2018-12-22T07:45:55.461Z,72.20
2018-12-22T07:48:22.930Z,72.70
2018-12-22T07:50:50.421Z,72.77
2018-12-22T07:53:17.888Z,73.24
2018-12-22T07:55:45.348Z,73.40
2018-12-22T07:58:12.832Z,72.77
2018-12-22T08:00:40.323Z,73.12
2018-12-22T08:03:07.777Z,73.25
2018-12-22T08:05:39.035Z,72.95
2018-12-22T08:08:04.778Z,73.14
2018-12-22T08:10:32.212Z,72.36
2018-12-22T08:12:59.697Z,72.66
2018-12-22T08:15:27.148Z,72.24
2018-12-22T08:17:54.607Z,71.98
2018-12-22T08:20:22.082Z,72.01
2018-12-22T08:22:49.587Z,71.92
2018-12-22T08:25:17.063Z,71.62
2018-12-22T08:27:44.518Z,71.67
2018-12-22T08:30:11.994Z,72.50
2018-12-22T08:32:39.463Z,72.13
2018-12-22T08:35:06.896Z,72.54
2018-12-22T08:37:35.611Z,71.66
2018-12-22T08:40:03.244Z,72.33
2018-12-22T08:42:30.729Z,70.83
2018-12-22T08:44:58.164Z,71.32
2018-12-22T08:47:25.724Z,71.23
2018-12-22T08:49:53.338Z,72.46
2018-12-22T08:52:20.791Z,71.71
2018-12-22T08:54:48.268Z,71.64
2018-12-22T08:57:15.727Z,72.15
2018-12-22T08:59:43.207Z,72.21
2018-12-22T09:02:10.690Z,71.01
2018-12-22T09:04:38.251Z,71.69
2018-12-22T09:07:05.826Z,70.91
2018-12-22T09:09:33.296Z,70.54
2018-12-22T09:12:00.743Z,71.89
2018-12-22T09:14:28.213Z,71.03
2018-12-22T09:16:55.686Z,71.52
2018-12-22T09:19:23.167Z,70.85
2018-12-22T09:21:50.651Z,70.64
2018-12-22T09:24:18.128Z,70.32
2018-12-22T09:26:45.615Z,71.08
2018-12-22T09:29:13.102Z,71.75
2018-12-22T09:31:40.582Z,71.74
2018-12-22T09:34:13.207Z,72.20
2018-12-22T09:36:37.570Z,71.61
2018-12-22T09:39:07.107Z,70.98
2018-12-22T09:41:34.633Z,70.87
2018-12-22T09:44:02.092Z,71.16
2018-12-22T09:46:30.081Z,70.27
2018-12-22T09:48:57.608Z,70.69
2018-12-22T09:51:25.161Z,70.85
2018-12-22T09:53:52.631Z,75.10
2018-12-22T09:56:20.135Z,72.07
2018-12-22T09:58:47.731Z,70.25
2018-12-22T10:01:15.226Z,70.41
2018-12-22T10:03:42.675Z,70.34
2018-12-22T10:06:10.132Z,70.61
2018-12-22T10:08:37.686Z,69.37
2018-12-22T10:11:05.190Z,70.48
2018-12-22T10:13:32.636Z,70.23
2018-12-22T10:16:00.136Z,69.98
2018-12-22T10:18:27.595Z,70.77
2018-12-22T10:20:55.032Z,70.66
2018-12-22T10:23:22.487Z,70.22
2018-12-22T10:25:49.985Z,70.21
2018-12-22T10:28:17.581Z,69.91
2018-12-22T10:30:45.031Z,70.71
2018-12-22T10:33:12.512Z,69.45
2018-12-22T10:35:39.992Z,70.79
2018-12-22T10:38:07.476Z,70.82
2018-12-22T10:40:34.926Z,68.84
2018-12-22T10:43:02.426Z,69.15
2018-12-22T10:45:29.963Z,68.96
2018-12-22T10:47:57.462Z,70.05
2018-12-22T10:50:24.945Z,69.80
2018-12-22T10:52:52.855Z,68.42
2018-12-22T10:55:20.296Z,69.16
2018-12-22T10:57:47.767Z,70.12
2018-12-22T11:00:15.337Z,69.04
2018-12-22T11:02:42.950Z,69.74
2018-12-22T11:05:11.027Z,69.68
2018-12-22T11:07:38.517Z,69.95
2018-12-22T11:10:09.930Z,68.77
2018-12-22T11:12:37.361Z,69.09
2018-12-22T11:15:07.156Z,69.75
2018-12-22T11:17:34.612Z,68.46
2018-12-22T11:20:02.085Z,68.50
2018-12-22T11:22:29.567Z,68.36
2018-12-22T11:24:57.025Z,68.40
2018-12-22T11:27:24.612Z,68.10
2018-12-22T11:29:52.099Z,67.41
2018-12-22T11:32:19.589Z,68.42
2018-12-22T11:34:47.070Z,68.65
2018-12-22T11:37:14.532Z,68.92
2018-12-22T11:39:42.029Z,68.03
2018-12-22T11:42:09.473Z,67.76
2018-12-22T11:44:36.950Z,68.31
2018-12-22T11:47:07.629Z,67.87
2018-12-22T11:49:35.090Z,67.80
2018-12-22T11:52:02.610Z,65.93
2018-12-22T11:54:30.140Z,64.93
2018-12-22T11:56:58.100Z,64.65
2018-12-22T11:59:25.792Z,64.48
2018-12-22T12:01:53.287Z,64.16
2018-12-22T12:04:20.770Z,64.21
2018-12-22T12:06:48.220Z,65.09
2018-12-22T12:09:15.725Z,64.29
2018-12-22T12:11:43.177Z,63.93
2018-12-22T12:14:10.656Z,65.50
2018-12-22T12:16:38.512Z,65.52
2018-12-22T12:19:10.007Z,65.16
2018-12-22T12:21:37.450Z,66.00
2018-12-22T12:24:04.935Z,66.03
2018-12-22T12:26:32.619Z,65.36
2018-12-22T12:29:00.101Z,65.64
2018-12-22T12:31:27.555Z,65.55
2018-12-22T12:33:55.147Z,66.16
2018-12-22T12:36:22.611Z,65.83
2018-12-22T12:38:50.102Z,66.09
2018-12-22T12:41:17.619Z,66.24
2018-12-22T12:43:45.113Z,65.79
2018-12-22T12:46:12.615Z,66.68
2018-12-22T12:48:40.085Z,65.87
2018-12-22T12:51:07.578Z,66.17
2018-12-22T12:53:35.040Z,65.96
2018-12-22T12:56:02.520Z,66.13
2018-12-22T12:58:29.982Z,66.05
2018-12-22T13:00:57.457Z,66.58
2018-12-22T13:03:24.917Z,66.43
2018-12-22T13:05:52.411Z,66.53
2018-12-22T13:08:19.916Z,67.29
2018-12-22T13:10:47.381Z,67.13
2018-12-22T13:13:18.861Z,68.10
2018-12-22T13:15:46.340Z,67.56
2018-12-22T13:18:13.825Z,67.18
2018-12-22T13:20:41.281Z,66.84
2018-12-22T13:23:08.762Z,65.99
2018-12-22T13:25:36.206Z,66.23
2018-12-22T13:28:03.722Z,66.18
2018-12-22T13:30:31.177Z,67.70
2018-12-22T13:32:58.712Z,67.00
2018-12-22T13:35:26.327Z,65.94
2018-12-22T13:37:53.790Z,66.23
2018-12-22T13:40:21.259Z,66.08
2018-12-22T13:42:48.722Z,66.93
2018-12-22T13:45:16.178Z,66.76
2018-12-22T13:47:43.736Z,66.78
2018-12-22T13:50:13.471Z,67.65
2018-12-22T13:52:40.994Z,68.20
2018-12-22T13:55:10.196Z,67.25
2018-12-22T13:57:42.700Z,67.11
2018-12-22T14:00:18.306Z,68.01
2018-12-22T14:02:45.802Z,67.84
2018-12-22T14:05:22.472Z,67.62
2018-12-22T14:07:50.146Z,67.77
2018-12-22T14:10:18.851Z,67.09
2018-12-22T14:12:46.363Z,67.21
2018-12-22T14:15:22.256Z,66.27
2018-12-22T14:17:56.479Z,65.85
2018-12-22T14:20:23.922Z,66.58
2018-12-22T14:22:51.477Z,66.72
2018-12-22T14:25:19.370Z,65.83
2018-12-22T14:27:46.871Z,66.03
2018-12-22T14:30:14.454Z,66.15
2018-12-22T14:32:41.926Z,65.72
2018-12-22T14:35:14.957Z,67.78
2018-12-22T14:37:42.433Z,66.96
2018-12-22T14:40:11.610Z,66.05
2018-12-22T14:42:39.112Z,66.54
2018-12-22T14:45:11.506Z,66.81
2018-12-22T14:47:38.986Z,67.64
2018-12-22T14:50:13.406Z,67.15
2018-12-22T14:52:41.025Z,68.09
2018-12-22T14:55:11.891Z,67.64
2018-12-22T14:57:57.434Z,68.28
2018-12-22T15:00:24.999Z,69.58
2018-12-22T15:02:52.486Z,68.92
2018-12-22T15:05:19.914Z,69.94
2018-12-22T15:07:47.510Z,70.40
2018-12-22T15:10:14.971Z,71.26
2018-12-22T15:12:42.461Z,71.87
2018-12-22T15:15:11.213Z,70.25
2018-12-22T15:17:41.389Z,70.55
2018-12-22T15:20:19.215Z,70.52
2018-12-22T15:22:46.705Z,71.49
2018-12-22T15:25:14.165Z,71.04
2018-12-22T15:27:41.654Z,72.51
2018-12-22T15:30:13.084Z,71.60
2018-12-22T15:32:46.224Z,71.95
2018-12-22T15:35:10.195Z,72.65
2018-12-22T15:37:37.865Z,72.48
2018-12-22T15:40:09.976Z,72.66
2018-12-22T15:42:37.623Z,73.47
2018-12-22T15:45:11.142Z,72.91
2018-12-22T15:47:38.599Z,73.56
2018-12-22T15:50:12.381Z,74.34
2018-12-22T15:52:39.822Z,72.63
2018-12-22T15:55:08.695Z,72.26
2018-12-22T15:57:36.451Z,72.61
2018-12-22T16:00:07.108Z,72.99
2018-12-22T16:02:34.555Z,72.78
2018-12-22T16:05:02.079Z,72.20
2018-12-22T16:07:29.626Z,71.53
2018-12-22T16:09:57.132Z,71.94
2018-12-22T16:12:24.730Z,72.10
2018-12-22T16:14:52.266Z,71.73
2018-12-22T16:17:19.741Z,72.83
2018-12-22T16:19:47.250Z,71.78
2018-12-22T16:22:14.726Z,71.95
2018-12-22T16:24:42.256Z,71.92
2018-12-22T16:27:09.755Z,71.64
2018-12-22T16:29:38.040Z,71.69
2018-12-22T16:32:05.536Z,72.25
2018-12-22T16:34:32.980Z,71.96
2018-12-22T16:37:00.467Z,71.26
2018-12-22T16:39:27.925Z,72.12
2018-12-22T16:41:55.478Z,72.38
2018-12-22T16:44:22.990Z,71.27
2018-12-22T16:46:50.449Z,71.58
2018-12-22T16:49:17.915Z,71.08
2018-12-22T16:51:45.369Z,71.63
2018-12-22T16:54:12.848Z,72.27
2018-12-22T16:56:40.330Z,71.73
2018-12-22T16:59:08.748Z,72.23
2018-12-22T17:01:38.955Z,71.47
2018-12-22T17:04:06.424Z,70.74
2018-12-22T17:06:34.277Z,72.53
2018-12-22T17:09:01.774Z,71.23
2018-12-22T17:11:29.230Z,71.69
2018-12-22T17:13:56.687Z,72.08
2018-12-22T17:16:24.150Z,71.09
2018-12-22T17:18:51.621Z,72.52
2018-12-22T17:21:20.731Z,72.73
2018-12-22T17:23:52.326Z,73.06
2018-12-22T17:26:21.319Z,72.56
2018-12-22T17:28:48.787Z,72.87
2018-12-22T17:31:16.274Z,71.98
2018-12-22T17:33:43.763Z,72.88
2018-12-22T17:36:11.232Z,72.34
2018-12-22T17:38:38.820Z,72.58
2018-12-22T17:41:06.324Z,72.31
2018-12-22T17:43:34.431Z,72.88
2018-12-22T17:46:01.974Z,72.30
2018-12-22T17:48:29.455Z,72.89
2018-12-22T17:50:56.919Z,73.27
2018-12-22T17:53:24.416Z,73.41
2018-12-22T17:55:51.857Z,72.68
2018-12-22T17:58:19.460Z,72.79
2018-12-22T18:00:46.967Z,72.98
2018-12-22T18:03:14.545Z,72.83
2018-12-22T18:05:42.026Z,73.20
2018-12-22T18:08:09.516Z,72.54
2018-12-22T18:10:37.091Z,72.69
2018-12-22T18:13:04.585Z,71.61
2018-12-22T18:15:32.037Z,72.92
2018-12-22T18:17:59.522Z,73.24
2018-12-22T18:20:27.016Z,72.68
2018-12-22T18:22:54.511Z,72.46
2018-12-22T18:25:22.291Z,73.25
2018-12-22T18:27:51.584Z,73.58
2018-12-22T18:30:19.186Z,73.35
2018-12-22T18:32:46.760Z,72.84
2018-12-22T18:35:14.302Z,73.68
2018-12-22T18:37:41.790Z,73.19
2018-12-22T18:40:18.750Z,73.24
2018-12-22T18:42:47.126Z,72.98
2018-12-22T18:45:14.723Z,73.01
2018-12-22T18:47:43.200Z,72.39
2018-12-22T18:50:16.805Z,72.40
2018-12-22T18:52:44.304Z,72.49
2018-12-22T18:55:11.901Z,73.01
2018-12-22T18:57:39.373Z,72.97
2018-12-22T19:00:18.222Z,72.52
2018-12-22T19:02:45.734Z,72.92
2018-12-22T19:05:13.929Z,72.50
2018-12-22T19:07:41.509Z,72.34
2018-12-22T19:10:18.707Z,73.22
2018-12-22T19:12:46.229Z,72.64
2018-12-22T19:15:13.688Z,73.39
2018-12-22T19:17:41.146Z,73.12
2018-12-22T19:20:22.310Z,72.54
2018-12-22T19:22:49.747Z,73.03
2018-12-22T19:25:17.258Z,73.44
2018-12-22T19:27:44.746Z,73.29
2018-12-22T19:30:12.185Z,73.14
2018-12-22T19:32:39.635Z,72.59
2018-12-22T19:35:07.218Z,73.54
2018-12-22T19:37:35.560Z,73.39
2018-12-22T19:40:03.256Z,72.51
2018-12-22T19:42:30.699Z,72.71
2018-12-22T19:44:58.173Z,72.83
2018-12-22T19:47:25.615Z,72.79
2018-12-22T19:49:53.299Z,73.52
2018-12-22T19:52:20.760Z,72.91
2018-12-22T19:54:48.364Z,72.67
2018-12-22T19:57:15.820Z,73.36
2018-12-22T19:59:43.278Z,72.99
2018-12-22T20:02:10.754Z,72.81
2018-12-22T20:04:38.218Z,71.83
2018-12-22T20:07:05.710Z,73.09
2018-12-22T20:09:33.209Z,72.98
2018-12-22T20:12:00.735Z,71.58
2018-12-22T20:14:28.219Z,72.78
2018-12-22T20:16:55.683Z,72.61
2018-12-22T20:19:23.175Z,73.31
2018-12-22T20:21:50.678Z,72.66
2018-12-22T20:24:18.155Z,73.28
2018-12-22T20:26:45.644Z,73.30
2018-12-22T20:29:13.163Z,72.97
2018-12-22T20:31:40.650Z,72.50
2018-12-22T20:34:11.166Z,72.18
2018-12-22T20:36:37.758Z,71.97
2018-12-22T20:39:06.458Z,71.66
2018-12-22T20:41:33.964Z,72.01
2018-12-22T20:44:01.937Z,71.79
2018-12-22T20:46:29.514Z,73.23
2018-12-22T20:48:57.012Z,72.51
2018-12-22T20:51:24.512Z,73.29
2018-12-22T20:53:51.966Z,72.56
2018-12-22T20:56:19.698Z,72.80
2018-12-22T21:02:17.889Z,72.52
2018-12-22T21:04:45.371Z,73.19
2018-12-22T21:07:12.824Z,73.32
2018-12-22T21:09:40.358Z,73.52
2018-12-22T21:16:20.789Z,75.23
2018-12-22T21:18:48.293Z,75.11
2018-12-22T21:21:15.828Z,75.34
2018-12-22T21:23:43.294Z,75.25
2018-12-22T21:26:10.837Z,75.26
2018-12-22T21:28:38.299Z,74.87
2018-12-22T21:31:05.759Z,74.73
2018-12-22T21:33:33.277Z,75.25
2018-12-22T21:36:00.739Z,74.34
2018-12-22T21:38:28.207Z,74.36
2018-12-22T21:40:55.696Z,75.13
2018-12-22T21:43:23.200Z,75.06
2018-12-22T21:45:50.665Z,74.56
2018-12-22T21:48:18.115Z,74.15
2018-12-22T21:50:45.600Z,74.20
2018-12-22T21:53:13.104Z,74.92
2018-12-22T21:55:40.638Z,74.22
2018-12-22T21:58:08.139Z,74.59
2018-12-22T22:00:36.655Z,75.03
2018-12-22T22:03:04.167Z,74.15
2018-12-22T22:05:31.643Z,75.19
2018-12-22T22:07:59.121Z,74.52
2018-12-22T22:10:26.597Z,74.45
2018-12-22T22:12:54.065Z,73.89
2018-12-22T22:15:21.546Z,74.18
2018-12-22T22:17:49.134Z,74.14
2018-12-22T22:20:16.850Z,74.61
2018-12-22T22:22:44.350Z,73.86
2018-12-22T22:25:11.846Z,73.74
2018-12-22T22:27:39.298Z,74.07
2018-12-22T22:30:06.999Z,74.09
2018-12-22T22:32:34.484Z,74.20
2018-12-22T22:35:01.954Z,74.07
2018-12-22T22:37:29.415Z,74.70
2018-12-22T22:39:56.876Z,73.46
2018-12-22T22:42:24.334Z,73.79
2018-12-22T22:44:51.816Z,73.72
2018-12-22T22:47:19.306Z,73.96
2018-12-22T22:49:46.819Z,74.24
2018-12-22T22:52:14.288Z,74.67
2018-12-22T22:54:41.750Z,73.05
2018-12-22T22:57:09.237Z,73.45
2018-12-22T22:59:36.738Z,73.46
2018-12-22T23:02:04.340Z,74.27
2018-12-22T23:04:31.809Z,74.13
2018-12-22T23:06:59.261Z,73.77
2018-12-22T23:09:26.749Z,73.24
2018-12-22T23:11:54.273Z,73.40
2018-12-22T23:14:21.806Z,73.43
2018-12-22T23:16:49.333Z,73.60
2018-12-22T23:19:16.866Z,73.98
2018-12-22T23:21:44.360Z,73.32
2018-12-22T23:24:11.839Z,72.86
2018-12-22T23:26:39.341Z,73.45
2018-12-22T23:29:06.782Z,73.55
2018-12-22T23:31:34.579Z,72.28
2018-12-22T23:34:02.049Z,72.83
2018-12-22T23:36:29.503Z,72.64
2018-12-22T23:38:56.973Z,73.16
2018-12-22T23:41:24.443Z,73.20
2018-12-22T23:43:51.889Z,72.94
2018-12-22T23:46:19.373Z,73.15
2018-12-22T23:48:46.809Z,72.49
2018-12-22T23:51:14.317Z,73.23
2018-12-22T23:53:41.769Z,72.69
2018-12-22T23:56:09.291Z,73.37
2018-12-22T23:58:36.759Z,73.15
